Time;durP1;ratioP1;P1;durP2;ratioP2;P2;SDS_P1;SDS_P2;PMS_P1;PMS_P2;Temp;Humidity;BMP_temperature;BMP_pressure;BME280_temperature;BME280_humidity;BME280_pressure;Samples;Min_cycle;Max_cycle;Signal;HPM_P1;HPM_P2
2023/10/01 00:00:28;;;;;;;3.70;2.00;;;29.30;99.90;;;;;;5048317;28;20195;-77
2023/10/01 00:02:59;;;;;;;6.00;2.08;;;29.40;99.90;;;;;;5047262;28;20204;-72
2023/10/01 00:05:30;;;;;;;3.45;2.13;;;29.50;99.90;;;;;;5051756;28;20270;-77
2023/10/01 00:08:02;;;;;;;3.00;2.30;;;29.70;99.90;;;;;;5045166;28;20669;-78
2023/10/01 00:10:33;;;;;;;3.65;2.10;;;29.80;99.90;;;;;;5048979;28;20233;-74
2023/10/01 00:13:10;;;;;;;4.07;2.17;;;29.90;99.90;;;;;;5049027;28;20193;-76
2023/10/01 00:15:41;;;;;;;2.30;2.08;;;30.10;99.90;;;;;;5049382;28;20216;-76
2023/10/01 00:18:14;;;;;;;3.75;2.25;;;30.20;99.90;;;;;;5050794;28;20235;-81
2023/10/01 00:20:46;;;;;;;3.53;2.17;;;30.20;99.90;;;;;;5046496;28;20200;-80
2023/10/01 00:23:17;;;;;;;6.03;2.50;;;30.30;99.90;;;;;;5054344;28;20280;-71
2023/10/01 00:25:50;;;;;;;3.50;2.63;;;30.50;99.90;;;;;;5047970;28;20220;-74
2023/10/01 00:28:23;;;;;;;3.92;2.60;;;30.50;99.90;;;;;;5048414;28;20197;-80
2023/10/01 00:30:54;;;;;;;4.68;2.53;;;30.60;99.90;;;;;;5039341;28;20637;-74
2023/10/01 00:33:25;;;;;;;3.28;2.35;;;30.60;99.90;;;;;;5044958;28;20197;-80
2023/10/01 00:35:59;;;;;;;3.00;2.35;;;30.60;99.90;;;;;;5041538;28;20267;-74
2023/10/01 00:38:29;;;;;;;3.67;2.65;;;30.60;99.90;;;;;;5047210;28;20595;-77
2023/10/01 00:41:00;;;;;;;5.10;2.80;;;30.60;99.90;;;;;;5041993;28;20568;-76
2023/10/01 00:43:35;;;;;;;5.80;2.60;;;30.70;99.90;;;;;;5047603;28;20645;-75
2023/10/01 00:46:06;;;;;;;4.32;2.67;;;30.80;99.90;;;;;;5043475;28;20263;-78
2023/10/01 00:48:38;;;;;;;3.03;2.67;;;31.00;99.90;;;;;;5044718;28;20206;-78
2023/10/01 00:51:10;;;;;;;4.55;2.85;;;31.20;99.90;;;;;;5047795;28;20193;-77
2023/10/01 00:53:42;;;;;;;2.88;2.60;;;31.40;99.90;;;;;;5048015;28;20295;-74
2023/10/01 00:56:13;;;;;;;5.22;2.50;;;31.40;99.90;;;;;;5042226;28;20288;-73
2023/10/01 00:58:46;;;;;;;4.00;2.40;;;31.50;99.90;;;;;;5046261;28;20197;-76
2023/10/01 01:01:17;;;;;;;5.40;2.60;;;31.60;99.90;;;;;;5048916;28;20204;-76
2023/10/01 01:03:52;;;;;;;3.53;2.67;;;31.70;99.90;;;;;;5046094;28;20193;-74
2023/10/01 01:06:25;;;;;;;5.90;2.67;;;31.70;99.90;;;;;;5052274;28;20217;-76
2023/10/01 01:08:56;;;;;;;5.35;2.40;;;32.00;99.90;;;;;;5046318;28;20198;-78
2023/10/01 01:11:27;;;;;;;3.25;2.47;;;32.20;99.90;;;;;;5054860;28;20539;-76
2023/10/01 01:14:01;;;;;;;3.92;2.35;;;32.30;99.90;;;;;;5036249;28;20198;-75
2023/10/01 01:16:31;;;;;;;3.65;2.72;;;32.50;99.90;;;;;;5047805;28;20220;-77
2023/10/01 01:19:04;;;;;;;4.38;2.50;;;32.70;99.90;;;;;;5066752;28;20232;-77
2023/10/01 01:21:41;;;;;;;3.17;2.40;;;32.80;99.90;;;;;;5053708;28;20186;-75
2023/10/01 01:24:15;;;;;;;5.43;2.45;;;32.90;99.90;;;;;;5052982;28;20190;-76
2023/10/01 01:26:51;;;;;;;3.00;2.35;;;33.00;99.90;;;;;;5049997;28;20207;-78
2023/10/01 01:29:29;;;;;;;2.88;2.33;;;33.10;99.90;;;;;;5053470;28;20293;-80
2023/10/01 01:32:07;;;;;;;4.28;2.15;;;33.20;99.90;;;;;;5045993;28;20193;-78
2023/10/01 01:34:38;;;;;;;4.75;2.40;;;33.40;99.90;;;;;;5055600;28;20189;-77
2023/10/01 01:37:08;;;;;;;5.45;2.10;;;33.50;99.90;;;;;;5055876;28;20196;-79
2023/10/01 01:39:51;;;;;;;2.28;2.08;;;33.60;99.90;;;;;;5055050;28;20193;-79
2023/10/01 01:42:22;;;;;;;4.03;2.25;;;33.70;99.90;;;;;;5054758;28;20641;-77
2023/10/01 01:45:15;;;;;;;2.33;2.05;;;33.80;99.90;;;;;;5055264;28;20213;-77
2023/10/01 01:47:45;;;;;;;3.50;1.77;;;33.80;99.90;;;;;;5055022;28;20198;-77
2023/10/01 01:50:21;;;;;;;3.20;1.90;;;33.80;99.90;;;;;;5055910;28;20189;-75
2023/10/01 01:52:52;;;;;;;2.78;2.00;;;33.80;99.90;;;;;;5055422;28;20653;-78
2023/10/01 01:55:26;;;;;;;2.47;1.92;;;33.80;99.90;;;;;;5055874;28;20212;-78
2023/10/01 01:58:08;;;;;;;3.70;2.38;;;33.90;99.90;;;;;;5055658;28;20198;-79
2023/10/01 02:00:47;;;;;;;2.60;2.00;;;34.00;99.90;;;;;;5055703;28;20201;-77
2023/10/01 07:49:22;;;;;;;4.22;1.52;;;32.50;65.90;;;;;;5051121;27;20555;-75
2023/10/01 07:51:54;;;;;;;2.72;1.45;;;32.50;67.50;;;;;;5050593;28;20584;-76
2023/10/01 07:54:28;;;;;;;3.00;1.30;;;32.50;67.60;;;;;;5050712;28;20199;-73
2023/10/01 07:56:59;;;;;;;3.65;1.65;;;32.50;67.00;;;;;;5050572;28;20636;-72
2023/10/01 07:59:34;;;;;;;2.92;1.60;;;32.50;68.00;;;;;;5034867;28;20202;-74
2023/10/01 08:02:19;;;;;;;3.92;1.30;;;32.50;67.40;;;;;;5041543;28;20198;-76
2023/10/01 08:05:00;;;;;;;2.70;1.20;;;32.40;68.00;;;;;;5030339;28;20187;-74
2023/10/01 08:07:39;;;;;;;3.88;1.50;;;32.40;67.30;;;;;;5041574;28;20719;-75
2023/10/01 08:10:19;;;;;;;3.10;1.20;;;32.50;67.60;;;;;;5050204;28;20189;-76
2023/10/01 08:13:07;;;;;;;2.00;1.35;;;32.40;68.00;;;;;;5050350;28;20311;-76
2023/10/01 08:15:57;;;;;;;3.72;1.33;;;32.30;68.20;;;;;;5050502;28;20244;-77
2023/10/01 08:18:39;;;;;;;3.72;1.67;;;32.20;68.50;;;;;;5048904;28;20225;-76
2023/10/01 08:21:15;;;;;;;2.53;1.50;;;32.10;68.70;;;;;;5030226;28;20277;-76
2023/10/01 08:23:48;;;;;;;3.85;1.50;;;32.00;68.80;;;;;;5030447;28;20193;-72
2023/10/01 08:29:14;;;;;;;2.65;1.60;;;31.70;69.60;;;;;;5014295;28;20203;-77
2023/10/01 08:34:29;;;;;;;3.97;2.40;;;31.60;69.60;;;;;;5029682;28;20947;-75
2023/10/01 08:37:06;;;;;;;4.40;2.40;;;31.50;70.20;;;;;;5029798;28;20241;-76
2023/10/01 08:39:47;;;;;;;3.50;2.40;;;31.40;70.60;;;;;;5029853;28;20670;-76
2023/10/01 08:42:18;;;;;;;4.57;2.70;;;31.20;71.80;;;;;;5029569;28;20248;-73
2023/10/01 08:44:50;;;;;;;3.00;2.25;;;31.00;73.70;;;;;;5029659;28;20280;-75
2023/10/01 08:50:26;;;;;;;5.47;2.40;;;30.60;77.50;;;;;;5029416;28;20558;-75
2023/10/01 08:53:01;;;;;;;4.82;2.40;;;30.40;79.00;;;;;;5029610;28;20281;-76
2023/10/01 08:56:04;;;;;;;4.10;2.72;;;30.20;77.60;;;;;;5029628;28;20198;-74
2023/10/01 08:58:48;;;;;;;4.53;2.20;;;30.00;77.40;;;;;;5027692;28;20262;-75
2023/10/01 09:01:21;;;;;;;4.05;2.47;;;29.90;79.10;;;;;;5026088;28;20198;-74
2023/10/01 09:03:55;;;;;;;3.95;2.50;;;29.80;79.30;;;;;;5036206;28;20637;-75
2023/10/01 09:06:58;;;;;;;6.15;2.72;;;29.80;79.00;;;;;;5036143;28;20194;-75
2023/10/01 09:09:51;;;;;;;3.10;2.17;;;29.80;79.10;;;;;;5036236;28;20190;-75
2023/10/01 09:12:22;;;;;;;4.85;2.58;;;30.00;78.80;;;;;;5035678;28;20203;-75
2023/10/01 09:14:53;;;;;;;4.22;2.17;;;29.80;77.50;;;;;;5035886;28;20639;-75
2023/10/01 09:17:27;;;;;;;2.50;2.25;;;29.80;75.30;;;;;;5035901;28;20194;-75
2023/10/01 09:20:06;;;;;;;9.45;2.70;;;29.90;77.00;;;;;;5035723;28;20657;-75
2023/10/01 09:22:43;;;;;;;3.75;2.13;;;29.90;77.20;;;;;;5035801;28;20202;-75
2023/10/01 09:25:25;;;;;;;3.83;2.30;;;29.90;76.40;;;;;;5036362;28;20638;-76
2023/10/01 09:28:02;;;;;;;3.72;2.15;;;29.90;77.00;;;;;;5035795;28;20217;-75
2023/10/01 09:30:47;;;;;;;4.03;2.50;;;29.80;76.20;;;;;;5035631;28;20194;-75
2023/10/01 09:33:27;;;;;;;3.33;2.30;;;29.80;75.80;;;;;;5035613;28;20194;-76
2023/10/01 09:35:59;;;;;;;4.18;2.10;;;29.80;75.90;;;;;;5035486;28;20205;-75
2023/10/01 09:38:30;;;;;;;3.90;2.10;;;29.80;75.70;;;;;;5035406;28;20273;-75
2023/10/01 09:41:03;;;;;;;5.95;2.35;;;29.70;75.70;;;;;;5035232;28;20186;-76
2023/10/01 09:43:38;;;;;;;5.72;2.47;;;29.80;76.40;;;;;;5035452;28;20248;-75
2023/10/01 09:46:10;;;;;;;4.93;2.30;;;29.70;77.70;;;;;;5035477;28;20190;-75
2023/10/01 09:48:48;;;;;;;5.50;2.40;;;29.60;78.40;;;;;;5035225;28;20238;-75
2023/10/01 09:51:22;;;;;;;4.93;2.33;;;29.50;78.60;;;;;;5035296;28;20225;-76
2023/10/01 09:53:56;;;;;;;4.88;2.63;;;29.40;77.90;;;;;;5035234;28;20190;-75
2023/10/01 09:56:29;;;;;;;3.85;2.60;;;29.30;78.70;;;;;;5035213;28;20186;-75
2023/10/01 09:59:01;;;;;;;3.20;2.10;;;29.20;79.10;;;;;;5024926;28;20219;-75
2023/10/01 10:01:34;;;;;;;10.55;3.38;;;29.20;79.00;;;;;;5015336;28;20214;-75
2023/10/01 10:04:06;;;;;;;28.90;6.13;;;29.20;83.50;;;;;;5015303;28;20689;-78
2023/10/01 10:06:39;;;;;;;29.95;7.05;;;28.30;99.90;;;;;;5015273;28;20599;-76
2023/10/01 10:09:25;;;;;;;35.50;7.25;;;26.90;99.90;;;;;;5014995;28;20205;-75
2023/10/01 10:12:01;;;;;;;35.38;7.47;;;26.10;99.90;;;;;;5014095;28;20191;-75
2023/10/01 10:14:58;;;;;;;40.83;7.82;;;25.10;99.90;;;;;;5015025;28;20601;-74
2023/10/01 10:17:38;;;;;;;43.75;7.38;;;24.30;99.90;;;;;;5014937;28;20195;-78
2023/10/01 10:20:25;;;;;;;41.35;7.22;;;23.90;99.90;;;;;;5014905;28;20198;-75
2023/10/01 10:23:29;;;;;;;47.08;8.13;;;23.40;99.90;;;;;;5014865;28;20187;-76
2023/10/01 10:26:14;;;;;;;43.53;7.57;;;23.10;99.90;;;;;;5003591;28;20306;-76
2023/10/01 10:29:00;;;;;;;39.40;6.93;;;22.80;99.90;;;;;;5014770;28;20195;-75
2023/10/01 10:31:34;;;;;;;38.50;7.35;;;22.50;99.90;;;;;;5014826;28;20187;-73
2023/10/01 10:34:36;;;;;;;43.03;7.93;;;22.20;99.90;;;;;;5014758;28;20190;-75
2023/10/01 10:37:08;;;;;;;43.28;7.68;;;22.10;99.90;;;;;;5014592;28;20206;-74
2023/10/01 10:40:29;;;;;;;43.50;7.07;;;22.00;99.90;;;;;;5014275;28;20218;-75
2023/10/01 10:43:18;;;;;;;35.78;6.55;;;21.90;99.90;;;;;;5014342;28;20230;-75
2023/10/01 10:46:08;;;;;;;33.60;6.60;;;21.80;99.90;;;;;;5014521;28;20199;-73
2023/10/01 10:49:03;;;;;;;40.65;7.07;;;21.60;99.90;;;;;;5017367;28;20234;-76
2023/10/01 10:51:58;;;;;;;42.38;7.13;;;21.40;99.90;;;;;;5033933;28;20639;-76
2023/10/01 10:54:37;;;;;;;34.75;6.35;;;21.20;99.90;;;;;;5032428;28;20260;-75
2023/10/01 10:57:07;;;;;;;37.13;6.25;;;21.10;99.90;;;;;;5034087;28;20638;-74
2023/10/01 10:59:39;;;;;;;39.53;6.25;;;21.00;99.90;;;;;;5033897;28;20226;-75
2023/10/01 11:02:12;;;;;;;37.00;6.45;;;21.10;99.90;;;;;;5017695;28;20256;-74
2023/10/01 11:04:43;;;;;;;36.30;6.93;;;21.00;99.90;;;;;;5014267;28;20198;-75
2023/10/01 11:07:19;;;;;;;31.30;6.00;;;21.00;99.90;;;;;;5013951;28;20195;-77
2023/10/01 11:10:03;;;;;;;37.38;6.60;;;20.90;99.90;;;;;;5013966;28;20195;-75
2023/10/01 11:12:34;;;;;;;39.53;6.10;;;20.90;99.90;;;;;;5014416;28;20205;-76
2023/10/01 11:17:50;;;;;;;36.50;6.18;;;20.80;99.90;;;;;;5013814;28;20659;-76
2023/10/01 11:20:24;;;;;;;37.28;5.88;;;20.70;99.90;;;;;;5013852;28;20199;-77
2023/10/01 11:22:55;;;;;;;32.95;6.07;;;20.70;99.90;;;;;;5013572;28;20671;-76
2023/10/01 11:25:27;;;;;;;34.80;5.82;;;20.70;99.90;;;;;;5013886;28;20186;-75
2023/10/01 11:28:05;;;;;;;37.42;6.35;;;20.70;99.90;;;;;;5013806;28;20194;-77
2023/10/01 11:30:42;;;;;;;25.13;4.95;;;20.60;99.90;;;;;;5013901;28;20562;-74
2023/10/01 11:33:28;;;;;;;36.17;6.40;;;20.60;99.90;;;;;;5012909;28;20286;-75
2023/10/01 11:36:06;;;;;;;35.08;6.15;;;20.50;99.90;;;;;;5015817;28;20199;-73
2023/10/01 11:38:40;;;;;;;38.35;6.22;;;20.50;99.90;;;;;;5018861;28;20227;-75
2023/10/01 11:41:10;;;;;;;24.70;5.03;;;20.40;99.90;;;;;;5009908;28;20194;-74
2023/10/01 11:43:42;;;;;;;34.97;5.45;;;20.50;99.90;;;;;;5021434;28;20622;-76
2023/10/01 11:46:21;;;;;;;34.53;5.85;;;20.40;99.90;;;;;;5011492;28;21682;-76
2023/10/01 11:49:02;;;;;;;33.97;5.88;;;20.40;99.90;;;;;;5016320;28;20238;-75
2023/10/01 11:51:32;;;;;;;32.70;5.10;;;20.30;99.90;;;;;;5019500;28;20204;-77
2023/10/01 11:54:09;;;;;;;33.10;6.00;;;20.30;99.90;;;;;;5014785;28;20674;-75
2023/10/01 11:56:42;;;;;;;38.58;5.95;;;20.30;99.90;;;;;;5019167;28;20247;-75
2023/10/01 11:59:19;;;;;;;30.90;4.72;;;20.30;99.90;;;;;;5020663;28;20261;-74
2023/10/01 12:01:52;;;;;;;35.67;5.22;;;20.20;99.90;;;;;;5017518;28;20625;-72
2023/10/01 12:07:20;;;;;;;29.63;4.93;;;20.10;99.90;;;;;;5020787;28;20205;-74
2023/10/01 12:09:51;;;;;;;33.38;5.20;;;20.20;99.90;;;;;;5024301;28;20202;-76
2023/10/01 12:12:25;;;;;;;29.40;4.63;;;20.20;99.90;;;;;;5023602;28;20189;-75
2023/10/01 12:14:54;;;;;;;30.23;5.45;;;20.20;99.90;;;;;;5020587;28;20195;-76
2023/10/01 12:17:30;;;;;;;23.25;4.22;;;20.10;99.90;;;;;;5023220;28;20272;-76
2023/10/01 12:20:21;;;;;;;25.63;4.18;;;20.10;99.90;;;;;;5023697;28;20217;-78
2023/10/01 12:23:10;;;;;;;33.70;4.80;;;20.10;99.90;;;;;;5021230;28;20553;-77
2023/10/01 12:25:46;;;;;;;22.95;4.10;;;20.10;99.90;;;;;;5014851;28;20746;-78
2023/10/01 12:28:24;;;;;;;26.75;3.90;;;20.00;99.90;;;;;;5012669;28;20201;-76
2023/10/01 12:31:08;;;;;;;24.98;3.95;;;19.90;99.90;;;;;;5011884;28;20558;-76
2023/10/01 12:33:40;;;;;;;25.85;4.20;;;20.00;99.90;;;;;;5024070;28;20737;-73
2023/10/01 12:36:31;;;;;;;28.17;4.38;;;19.90;99.90;;;;;;5025728;28;20203;-74
2023/10/01 12:39:16;;;;;;;26.02;4.78;;;19.80;99.90;;;;;;5026197;28;20242;-74
2023/10/01 12:41:56;;;;;;;27.50;4.10;;;19.90;99.90;;;;;;5026213;28;20195;-74
2023/10/01 12:44:28;;;;;;;27.52;4.80;;;19.90;99.90;;;;;;5016065;28;20281;-75
2023/10/01 12:47:00;;;;;;;26.45;4.80;;;19.80;99.90;;;;;;5015398;28;20202;-73
2023/10/01 12:49:32;;;;;;;25.20;4.50;;;19.80;99.90;;;;;;5015544;28;20191;-74
2023/10/01 12:52:05;;;;;;;23.95;4.32;;;19.80;99.90;;;;;;5013436;28;20198;-77
2023/10/01 12:54:36;;;;;;;26.83;4.47;;;19.80;99.90;;;;;;5022550;28;20282;-74
2023/10/01 12:57:09;;;;;;;23.80;3.53;;;19.80;99.90;;;;;;5032293;28;20195;-73
2023/10/01 12:59:39;;;;;;;30.40;3.75;;;19.70;99.90;;;;;;5016128;28;20226;-75
2023/10/01 13:02:22;;;;;;;23.77;4.07;;;19.70;99.90;;;;;;5021838;28;20277;-75
2023/10/01 13:05:16;;;;;;;27.80;3.80;;;19.70;99.90;;;;;;5020066;28;20198;-77
2023/10/01 13:07:46;;;;;;;29.42;4.00;;;19.70;99.90;;;;;;5024985;28;20198;-74
2023/10/01 13:10:16;;;;;;;27.90;4.00;;;19.60;99.90;;;;;;5026689;28;20207;-75
2023/10/01 13:12:55;;;;;;;20.88;4.03;;;19.70;99.90;;;;;;5027734;28;20278;-76
2023/10/01 13:15:33;;;;;;;27.85;4.30;;;19.60;99.90;;;;;;5025749;28;20662;-76
2023/10/01 13:18:12;;;;;;;23.08;3.88;;;19.60;99.90;;;;;;5022477;28;20205;-76
2023/10/01 13:20:48;;;;;;;27.38;3.70;;;19.60;99.90;;;;;;5025745;28;20198;-77
2023/10/01 13:23:24;;;;;;;25.98;4.15;;;19.60;99.90;;;;;;5024166;28;20769;-76
2023/10/01 13:26:05;;;;;;;28.25;3.72;;;19.60;99.90;;;;;;5024719;28;20314;-77
2023/10/01 13:28:46;;;;;;;21.15;3.88;;;19.50;99.90;;;;;;5021044;28;20282;-77
2023/10/01 13:34:31;;;;;;;23.45;3.45;;;19.50;99.90;;;;;;5035680;28;20185;-76
2023/10/01 13:37:42;;;;;;;28.17;4.20;;;19.50;99.90;;;;;;5016514;28;20257;-77
2023/10/01 13:40:14;;;;;;;25.42;4.03;;;19.40;99.90;;;;;;5019516;28;20235;-77
2023/10/01 14:10:38;;;;;;;18.40;3.42;;;19.30;99.90;;;;;;5027792;28;20204;-77
2023/10/01 14:13:11;;;;;;;20.48;3.53;;;19.20;99.90;;;;;;5014942;28;20207;-77
2023/10/01 14:15:42;;;;;;;19.90;3.55;;;19.30;99.90;;;;;;5014599;28;20281;-76
2023/10/01 14:18:33;;;;;;;24.08;3.63;;;19.30;99.90;;;;;;5020481;28;20216;-76
2023/10/01 14:21:12;;;;;;;22.38;3.75;;;19.30;99.90;;;;;;5018675;28;20198;-75
2023/10/01 14:23:43;;;;;;;25.95;3.58;;;19.30;99.90;;;;;;5016396;28;20562;-76
2023/10/01 14:26:18;;;;;;;29.15;4.55;;;19.20;99.90;;;;;;5032625;28;20217;-76
2023/10/01 14:28:55;;;;;;;21.17;3.72;;;19.20;99.90;;;;;;5018038;28;20206;-76
2023/10/01 14:34:28;;;;;;;21.75;3.42;;;19.20;99.90;;;;;;5098118;27;21132;-76
2023/10/01 14:37:00;;;;;;;18.92;3.30;;;19.20;99.90;;;;;;5090559;28;20196;-76
2023/10/01 14:39:32;;;;;;;20.20;3.50;;;19.20;99.90;;;;;;5101008;28;20223;-76
2023/10/01 14:42:02;;;;;;;21.58;3.40;;;19.20;99.90;;;;;;5099661;28;20219;-76
2023/10/01 14:44:42;;;;;;;28.10;4.45;;;19.20;99.90;;;;;;5089237;28;20648;-75
2023/10/01 14:47:17;;;;;;;20.05;3.85;;;19.20;99.90;;;;;;5088768;28;20278;-75
2023/10/01 14:49:51;;;;;;;23.98;4.25;;;19.20;99.90;;;;;;5090284;28;20218;-75
2023/10/01 14:52:24;;;;;;;24.88;3.67;;;19.20;99.90;;;;;;5089504;28;20219;-76
2023/10/01 14:55:01;;;;;;;24.25;3.85;;;19.20;99.90;;;;;;5089161;28;20582;-74
2023/10/01 14:57:32;;;;;;;24.20;3.75;;;19.20;99.90;;;;;;5089631;28;20203;-75
2023/10/01 15:00:03;;;;;;;17.65;3.58;;;19.20;99.90;;;;;;5088900;28;20200;-76
2023/10/01 15:02:36;;;;;;;18.83;3.92;;;19.20;99.90;;;;;;5086011;28;20258;-76
2023/10/01 15:05:14;;;;;;;22.40;3.80;;;19.20;99.90;;;;;;5087231;28;20253;-75
2023/10/01 15:07:44;;;;;;;21.85;3.97;;;19.10;99.90;;;;;;5087518;28;20198;-75
2023/10/01 15:10:18;;;;;;;19.40;3.70;;;19.10;99.90;;;;;;5086462;28;20192;-75
2023/10/01 15:12:49;;;;;;;23.50;3.55;;;19.10;99.90;;;;;;5086135;28;20215;-76
2023/10/01 15:15:20;;;;;;;23.35;4.00;;;19.20;99.90;;;;;;5085807;28;20204;-76
2023/10/01 15:17:54;;;;;;;26.95;3.78;;;19.20;99.90;;;;;;5085135;28;20196;-76
2023/10/01 15:20:30;;;;;;;23.35;3.42;;;19.20;99.90;;;;;;5088354;28;20242;-75
2023/10/01 15:23:15;;;;;;;25.95;4.35;;;19.20;99.90;;;;;;5087617;28;20200;-76
2023/10/01 15:25:46;;;;;;;21.55;3.92;;;19.20;99.90;;;;;;5082054;28;20218;-75
2023/10/01 15:28:17;;;;;;;21.45;3.80;;;19.10;99.90;;;;;;5086557;28;20224;-76
2023/10/01 15:30:48;;;;;;;21.40;3.55;;;19.10;99.90;;;;;;5089547;28;20224;-75
2023/10/01 15:33:20;;;;;;;24.25;3.85;;;19.00;99.90;;;;;;5085748;28;20335;-76
2023/10/01 15:36:05;;;;;;;24.60;4.50;;;19.00;99.90;;;;;;5086215;28;20652;-75
2023/10/01 15:38:35;;;;;;;21.05;3.65;;;19.00;99.90;;;;;;5086748;28;20295;-75
2023/10/01 15:41:09;;;;;;;27.80;4.60;;;19.00;99.90;;;;;;5088380;28;20212;-75
2023/10/01 15:43:50;;;;;;;16.38;3.00;;;19.00;99.90;;;;;;5086793;28;20204;-75
2023/10/01 15:46:24;;;;;;;20.90;3.05;;;19.00;99.90;;;;;;5076196;28;20197;-75
2023/10/01 15:48:55;;;;;;;20.05;3.72;;;19.00;99.90;;;;;;5074214;28;20204;-75
2023/10/01 15:51:28;;;;;;;19.77;3.15;;;18.90;99.90;;;;;;5073944;28;20220;-75
2023/10/01 15:53:59;;;;;;;22.13;3.55;;;18.90;99.90;;;;;;5073888;28;20216;-75
2023/10/01 15:56:33;;;;;;;21.40;3.60;;;18.90;99.90;;;;;;5066434;28;20693;-75
2023/10/01 15:59:10;;;;;;;20.90;3.38;;;18.90;99.90;;;;;;5066600;28;20201;-76
2023/10/01 16:01:50;;;;;;;22.58;3.38;;;18.90;99.90;;;;;;5064391;28;20281;-76
2023/10/01 16:04:25;;;;;;;20.65;2.88;;;18.90;99.90;;;;;;5068847;28;20243;-75
2023/10/01 16:07:03;;;;;;;18.13;3.22;;;18.90;99.90;;;;;;5073421;28;20195;-75
2023/10/01 16:09:40;;;;;;;20.35;3.83;;;18.90;99.90;;;;;;5074690;28;20204;-74
2023/10/01 16:12:14;;;;;;;17.52;2.95;;;18.90;99.90;;;;;;5072493;28;20201;-75
2023/10/01 16:14:45;;;;;;;18.33;3.30;;;18.90;99.90;;;;;;5074023;28;20327;-74
2023/10/01 16:17:20;;;;;;;17.05;3.40;;;18.80;99.90;;;;;;5074887;28;20628;-74
2023/10/01 16:19:54;;;;;;;14.73;2.97;;;18.90;99.90;;;;;;5074591;28;20200;-74
2023/10/01 16:22:28;;;;;;;15.68;2.85;;;18.90;99.90;;;;;;5072581;28;20205;-74
2023/10/01 16:25:02;;;;;;;24.52;3.63;;;18.80;99.90;;;;;;5071000;28;20645;-74
2023/10/01 16:27:36;;;;;;;17.45;3.00;;;18.80;99.90;;;;;;5073470;28;20283;-74
2023/10/01 16:30:19;;;;;;;23.23;3.10;;;18.80;99.90;;;;;;5074579;28;20235;-75
2023/10/01 16:32:51;;;;;;;20.45;3.08;;;18.80;99.90;;;;;;5074033;28;20243;-76
2023/10/01 16:35:27;;;;;;;20.65;3.08;;;18.80;99.90;;;;;;5072921;28;20197;-75
2023/10/01 16:38:03;;;;;;;17.13;3.13;;;18.80;99.90;;;;;;5073544;28;20188;-73
2023/10/01 16:40:35;;;;;;;19.42;3.42;;;18.70;99.90;;;;;;5073730;28;20196;-75
2023/10/01 16:43:14;;;;;;;30.30;3.72;;;18.70;99.90;;;;;;5074850;28;20698;-75
2023/10/01 16:45:45;;;;;;;17.77;3.65;;;18.70;99.90;;;;;;5073655;28;20208;-75
2023/10/01 16:48:29;;;;;;;16.02;2.67;;;18.70;99.90;;;;;;5073355;28;20215;-73
2023/10/01 16:51:03;;;;;;;18.23;3.25;;;18.60;99.90;;;;;;5070721;28;20225;-75
2023/10/01 16:53:38;;;;;;;14.85;2.50;;;18.60;99.90;;;;;;5069411;28;20226;-74
2023/10/01 16:56:15;;;;;;;14.50;2.60;;;18.50;99.90;;;;;;5070427;28;20225;-75
2023/10/01 16:58:47;;;;;;;14.93;2.90;;;18.60;99.90;;;;;;5071105;28;20228;-75
2023/10/01 17:01:19;;;;;;;15.35;2.88;;;18.60;99.90;;;;;;5066948;28;20208;-75
2023/10/01 17:03:55;;;;;;;14.32;2.55;;;18.60;99.90;;;;;;5067366;28;20219;-75
2023/10/01 17:06:30;;;;;;;17.85;2.70;;;18.60;99.90;;;;;;5073837;28;20624;-75
2023/10/01 17:09:11;;;;;;;14.75;2.63;;;18.60;99.90;;;;;;5073277;28;20192;-74
2023/10/01 17:11:43;;;;;;;22.48;3.63;;;18.60;99.90;;;;;;5073091;28;20193;-75
2023/10/01 17:14:16;;;;;;;16.73;3.40;;;18.60;99.90;;;;;;5073195;28;20220;-75
2023/10/01 17:16:49;;;;;;;14.65;2.75;;;18.60;99.90;;;;;;5071275;28;20290;-75
2023/10/01 17:19:32;;;;;;;14.05;2.55;;;18.60;99.90;;;;;;5072725;28;20215;-74
2023/10/01 17:22:07;;;;;;;12.40;2.80;;;18.60;99.90;;;;;;5065683;28;20192;-75
2023/10/01 17:24:43;;;;;;;23.42;3.72;;;18.60;99.90;;;;;;5070547;28;20196;-75
2023/10/01 17:27:18;;;;;;;15.63;3.20;;;18.60;99.90;;;;;;5073968;28;20196;-75
2023/10/01 17:29:50;;;;;;;16.33;2.78;;;18.60;99.90;;;;;;5071814;28;20193;-75
2023/10/01 17:32:25;;;;;;;17.67;2.92;;;18.50;99.90;;;;;;5068918;28;20228;-75
2023/10/01 17:34:57;;;;;;;12.48;2.50;;;18.50;99.90;;;;;;5069941;28;20702;-75
2023/10/01 17:37:27;;;;;;;16.38;3.22;;;18.50;99.90;;;;;;5070687;28;20251;-75
2023/10/01 17:40:01;;;;;;;12.85;2.80;;;18.50;99.90;;;;;;5070779;28;20271;-75
2023/10/01 17:42:32;;;;;;;14.20;3.25;;;18.50;99.90;;;;;;5072404;28;20200;-74
2023/10/01 17:45:03;;;;;;;17.65;3.13;;;18.50;99.90;;;;;;5074651;28;20208;-75
2023/10/01 17:47:33;;;;;;;11.82;3.03;;;18.50;99.90;;;;;;5070549;28;20196;-76
2023/10/01 17:50:10;;;;;;;16.60;2.90;;;18.40;99.90;;;;;;5072745;28;20653;-76
2023/10/01 17:52:42;;;;;;;15.38;2.85;;;18.40;99.90;;;;;;5071755;28;20196;-75
2023/10/01 17:55:23;;;;;;;14.90;2.60;;;18.40;99.90;;;;;;5070531;28;20270;-75
2023/10/01 17:57:54;;;;;;;15.23;2.78;;;18.40;99.90;;;;;;5072475;28;20189;-76
2023/10/01 18:00:39;;;;;;;16.42;2.90;;;18.40;99.90;;;;;;5072938;28;20222;-76
2023/10/01 18:03:16;;;;;;;15.02;2.65;;;18.40;99.90;;;;;;5072177;28;20200;-76
2023/10/01 18:05:58;;;;;;;13.38;2.75;;;18.40;99.90;;;;;;5071969;28;20199;-74
2023/10/01 18:08:29;;;;;;;15.30;2.95;;;18.40;99.90;;;;;;5071918;28;20208;-75
2023/10/01 18:11:09;;;;;;;13.80;2.67;;;18.30;99.90;;;;;;5070162;28;20200;-75
2023/10/01 18:13:42;;;;;;;14.68;2.72;;;18.30;99.90;;;;;;5071134;28;20602;-75
2023/10/01 18:16:22;;;;;;;16.52;3.15;;;18.30;99.90;;;;;;5070814;28;20197;-74
2023/10/01 18:18:54;;;;;;;14.18;2.38;;;18.30;99.90;;;;;;5059624;28;20192;-75
2023/10/01 18:21:25;;;;;;;11.40;2.10;;;18.30;99.90;;;;;;5076964;28;20216;-75
2023/10/01 18:23:56;;;;;;;15.23;2.90;;;18.30;99.90;;;;;;5071492;28;20200;-75
2023/10/01 18:26:28;;;;;;;15.43;2.60;;;18.20;99.90;;;;;;5072238;28;20287;-75
2023/10/01 18:28:59;;;;;;;19.92;3.33;;;18.20;99.90;;;;;;5071503;28;20199;-76
2023/10/01 18:31:31;;;;;;;18.02;3.05;;;18.20;99.90;;;;;;5072064;28;20197;-75
2023/10/01 18:34:10;;;;;;;15.20;2.70;;;18.20;99.90;;;;;;5071685;28;20232;-75
2023/10/01 18:36:41;;;;;;;17.15;3.05;;;18.20;99.90;;;;;;5069304;28;20196;-75
2023/10/01 18:39:26;;;;;;;16.02;2.72;;;18.10;99.90;;;;;;5076606;28;20287;-75
2023/10/01 18:42:00;;;;;;;12.88;2.70;;;18.10;99.90;;;;;;5068297;28;20197;-75
2023/10/01 18:44:31;;;;;;;20.92;3.35;;;18.10;99.90;;;;;;5071867;28;20204;-75
2023/10/01 18:47:03;;;;;;;21.50;3.33;;;18.10;99.90;;;;;;5073106;28;20648;-75
2023/10/01 18:49:34;;;;;;;14.25;3.05;;;18.00;99.90;;;;;;5072821;28;20544;-75
2023/10/01 18:52:05;;;;;;;11.68;2.47;;;18.00;99.90;;;;;;5062885;28;20239;-74
2023/10/01 18:54:35;;;;;;;15.93;2.83;;;18.00;99.90;;;;;;5088646;28;20223;-73
2023/10/01 18:57:09;;;;;;;18.60;2.85;;;18.00;99.90;;;;;;5091398;28;20197;-75
2023/10/01 18:59:40;;;;;;;15.07;3.00;;;18.00;99.90;;;;;;5072564;28;20197;-74
2023/10/01 19:02:11;;;;;;;18.42;2.95;;;18.00;99.90;;;;;;5071916;28;20567;-75
2023/10/01 19:04:42;;;;;;;15.20;3.13;;;17.90;99.90;;;;;;5067440;28;20668;-75
2023/10/01 19:07:13;;;;;;;13.75;3.38;;;17.90;99.90;;;;;;5072081;28;20660;-74
2023/10/01 19:09:44;;;;;;;18.80;2.70;;;17.90;99.90;;;;;;5072354;28;20199;-74
2023/10/01 19:12:16;;;;;;;13.38;3.08;;;17.90;99.90;;;;;;5069644;28;20200;-74
2023/10/01 19:14:48;;;;;;;18.10;3.20;;;17.90;99.90;;;;;;5070115;28;20303;-73
2023/10/01 19:17:19;;;;;;;10.68;2.50;;;17.80;99.90;;;;;;5071890;28;20204;-74
2023/10/01 19:19:50;;;;;;;16.55;2.90;;;17.80;99.90;;;;;;5072150;28;20203;-74
2023/10/01 19:22:24;;;;;;;17.85;3.15;;;17.80;99.90;;;;;;5075858;28;20216;-73
2023/10/01 19:24:55;;;;;;;17.00;2.92;;;17.80;99.90;;;;;;5074728;28;20192;-74
2023/10/01 19:27:32;;;;;;;12.70;2.28;;;17.80;99.90;;;;;;5075180;28;20204;-73
2023/10/01 19:30:04;;;;;;;14.80;3.28;;;17.80;99.90;;;;;;5074521;28;20201;-74
2023/10/01 19:32:35;;;;;;;15.50;2.53;;;17.80;99.90;;;;;;5073351;28;20232;-73
2023/10/01 19:35:06;;;;;;;15.18;2.95;;;17.80;99.90;;;;;;5074416;28;20224;-75
2023/10/01 19:37:38;;;;;;;17.42;2.85;;;17.80;99.90;;;;;;5075354;28;20204;-74
2023/10/01 19:40:17;;;;;;;11.93;2.53;;;17.80;99.90;;;;;;5073980;28;20224;-73
2023/10/01 19:42:51;;;;;;;15.80;3.15;;;17.80;99.90;;;;;;5074460;28;20564;-74
2023/10/01 19:45:24;;;;;;;12.93;2.70;;;17.80;99.90;;;;;;5074839;28;20228;-75
2023/10/01 19:47:56;;;;;;;19.65;3.10;;;17.80;99.90;;;;;;5075489;28;20201;-74
2023/10/01 19:50:40;;;;;;;19.58;3.35;;;17.80;99.90;;;;;;5074485;28;20193;-74
2023/10/01 19:53:20;;;;;;;23.02;3.63;;;17.70;99.90;;;;;;5068439;28;20205;-73
2023/10/01 19:55:54;;;;;;;16.10;3.08;;;17.70;99.90;;;;;;5072703;28;20303;-75
2023/10/01 19:58:30;;;;;;;18.50;3.05;;;17.80;99.90;;;;;;5067552;28;20223;-75